sensor_id;sensor_type;location;lat;lon;timestamp;P1;durP1;ratioP1;P2;durP2;ratioP2
57643;SDS011;43474;46.510;6.686;2022-11-15T00:00:15;3.30;;;2.25;;
57643;SDS011;43474;46.510;6.686;2022-11-15T00:03:01;4.45;;;3.08;;
57643;SDS011;43474;46.510;6.686;2022-11-15T00:05:26;5.88;;;2.88;;
57643;SDS011;43474;46.510;6.686;2022-11-15T00:07:52;5.32;;;3.30;;
57643;SDS011;43474;46.510;6.686;2022-11-15T00:10:18;4.55;;;3.10;;
57643;SDS011;43474;46.510;6.686;2022-11-15T00:12:43;4.82;;;3.40;;
57643;SDS011;43474;46.510;6.686;2022-11-15T00:15:09;5.20;;;3.00;;
57643;SDS011;43474;46.510;6.686;2022-11-15T00:17:35;5.80;;;3.42;;
57643;SDS011;43474;46.510;6.686;2022-11-15T00:20:00;5.47;;;2.78;;
57643;SDS011;43474;46.510;6.686;2022-11-15T00:22:31;7.65;;;3.80;;
57643;SDS011;43474;46.510;6.686;2022-11-15T00:24:57;7.95;;;3.80;;
57643;SDS011;43474;46.510;6.686;2022-11-15T00:27:23;5.82;;;3.38;;
57643;SDS011;43474;46.510;6.686;2022-11-15T00:29:48;4.35;;;2.90;;
57643;SDS011;43474;46.510;6.686;2022-11-15T00:32:14;4.07;;;2.95;;
57643;SDS011;43474;46.510;6.686;2022-11-15T00:34:42;3.65;;;2.63;;
57643;SDS011;43474;46.510;6.686;2022-11-15T00:37:07;6.35;;;3.17;;
57643;SDS011;43474;46.510;6.686;2022-11-15T00:39:33;5.93;;;3.72;;
57643;SDS011;43474;46.510;6.686;2022-11-15T00:41:58;5.07;;;3.55;;
57643;SDS011;43474;46.510;6.686;2022-11-15T00:44:24;5.25;;;3.42;;
57643;SDS011;43474;46.510;6.686;2022-11-15T00:46:50;8.48;;;3.58;;
57643;SDS011;43474;46.510;6.686;2022-11-15T00:49:15;4.53;;;3.47;;
57643;SDS011;43474;46.510;6.686;2022-11-15T00:51:41;5.57;;;3.30;;
57643;SDS011;43474;46.510;6.686;2022-11-15T00:54:06;5.38;;;3.10;;
57643;SDS011;43474;46.510;6.686;2022-11-15T00:56:32;4.97;;;2.97;;
57643;SDS011;43474;46.510;6.686;2022-11-15T00:58:57;6.30;;;3.00;;
57643;SDS011;43474;46.510;6.686;2022-11-15T01:01:23;3.42;;;2.55;;
57643;SDS011;43474;46.510;6.686;2022-11-15T01:03:49;3.83;;;2.45;;
57643;SDS011;43474;46.510;6.686;2022-11-15T01:06:14;3.03;;;2.30;;
57643;SDS011;43474;46.510;6.686;2022-11-15T01:08:40;3.53;;;2.40;;
57643;SDS011;43474;46.510;6.686;2022-11-15T01:11:07;3.38;;;2.60;;
57643;SDS011;43474;46.510;6.686;2022-11-15T01:13:34;3.42;;;2.40;;
57643;SDS011;43474;46.510;6.686;2022-11-15T01:16:08;3.40;;;2.33;;
57643;SDS011;43474;46.510;6.686;2022-11-15T01:18:36;3.72;;;2.45;;
57643;SDS011;43474;46.510;6.686;2022-11-15T01:21:06;5.07;;;2.55;;
57643;SDS011;43474;46.510;6.686;2022-11-15T01:23:33;5.47;;;2.50;;
57643;SDS011;43474;46.510;6.686;2022-11-15T01:26:00;3.53;;;2.53;;
57643;SDS011;43474;46.510;6.686;2022-11-15T01:28:29;2.45;;;1.88;;
57643;SDS011;43474;46.510;6.686;2022-11-15T01:30:59;4.03;;;3.00;;
57643;SDS011;43474;46.510;6.686;2022-11-15T01:35:56;4.63;;;2.90;;
57643;SDS011;43474;46.510;6.686;2022-11-15T01:38:22;4.47;;;2.67;;
57643;SDS011;43474;46.510;6.686;2022-11-15T01:40:48;4.10;;;2.10;;
57643;SDS011;43474;46.510;6.686;2022-11-15T01:45:58;4.40;;;2.75;;
57643;SDS011;43474;46.510;6.686;2022-11-15T01:48:32;4.47;;;2.58;;
57643;SDS011;43474;46.510;6.686;2022-11-15T01:50:59;5.95;;;3.20;;
57643;SDS011;43474;46.510;6.686;2022-11-15T01:53:27;5.43;;;2.80;;
57643;SDS011;43474;46.510;6.686;2022-11-15T01:55:57;4.13;;;2.70;;
57643;SDS011;43474;46.510;6.686;2022-11-15T01:58:23;5.88;;;3.22;;
57643;SDS011;43474;46.510;6.686;2022-11-15T02:00:48;4.88;;;3.03;;
57643;SDS011;43474;46.510;6.686;2022-11-15T02:03:15;3.70;;;2.92;;
57643;SDS011;43474;46.510;6.686;2022-11-15T02:05:41;6.75;;;3.15;;
57643;SDS011;43474;46.510;6.686;2022-11-15T02:08:09;4.47;;;2.95;;
57643;SDS011;43474;46.510;6.686;2022-11-15T02:10:45;3.92;;;2.40;;
57643;SDS011;43474;46.510;6.686;2022-11-15T02:13:13;3.65;;;2.38;;
57643;SDS011;43474;46.510;6.686;2022-11-15T02:15:43;2.65;;;1.90;;
57643;SDS011;43474;46.510;6.686;2022-11-15T02:18:26;3.08;;;2.05;;
57643;SDS011;43474;46.510;6.686;2022-11-15T02:23:46;2.45;;;1.50;;
57643;SDS011;43474;46.510;6.686;2022-11-15T02:26:40;2.97;;;1.50;;
57643;SDS011;43474;46.510;6.686;2022-11-15T02:32:13;2.53;;;1.85;;
57643;SDS011;43474;46.510;6.686;2022-11-15T02:35:03;2.53;;;1.50;;
57643;SDS011;43474;46.510;6.686;2022-11-15T02:37:45;5.10;;;1.60;;
57643;SDS011;43474;46.510;6.686;2022-11-15T02:40:32;2.22;;;1.70;;
57643;SDS011;43474;46.510;6.686;2022-11-15T02:43:02;1.83;;;1.40;;
57643;SDS011;43474;46.510;6.686;2022-11-15T02:45:53;2.78;;;1.63;;
57643;SDS011;43474;46.510;6.686;2022-11-15T02:48:31;2.13;;;1.40;;
57643;SDS011;43474;46.510;6.686;2022-11-15T02:50:57;2.03;;;1.45;;
57643;SDS011;43474;46.510;6.686;2022-11-15T02:53:25;1.75;;;1.35;;
57643;SDS011;43474;46.510;6.686;2022-11-15T02:55:50;2.08;;;1.80;;
57643;SDS011;43474;46.510;6.686;2022-11-15T02:58:33;3.08;;;1.90;;
57643;SDS011;43474;46.510;6.686;2022-11-15T03:07:02;1.73;;;1.55;;
57643;SDS011;43474;46.510;6.686;2022-11-15T03:12:26;2.15;;;1.50;;
57643;SDS011;43474;46.510;6.686;2022-11-15T03:15:06;1.98;;;1.50;;
57643;SDS011;43474;46.510;6.686;2022-11-15T03:17:40;2.33;;;1.63;;
57643;SDS011;43474;46.510;6.686;2022-11-15T03:20:13;2.35;;;1.75;;
57643;SDS011;43474;46.510;6.686;2022-11-15T03:22:42;3.15;;;1.90;;
57643;SDS011;43474;46.510;6.686;2022-11-15T03:25:10;2.72;;;1.73;;
57643;SDS011;43474;46.510;6.686;2022-11-15T03:27:44;1.90;;;1.60;;
57643;SDS011;43474;46.510;6.686;2022-11-15T03:30:16;4.22;;;2.13;;
57643;SDS011;43474;46.510;6.686;2022-11-15T03:32:46;3.15;;;1.52;;
57643;SDS011;43474;46.510;6.686;2022-11-15T03:35:17;1.35;;;1.20;;
57643;SDS011;43474;46.510;6.686;2022-11-15T03:40:42;2.28;;;1.48;;
57643;SDS011;43474;46.510;6.686;2022-11-15T03:43:15;1.58;;;1.30;;
57643;SDS011;43474;46.510;6.686;2022-11-15T03:46:02;3.50;;;1.50;;
57643;SDS011;43474;46.510;6.686;2022-11-15T03:48:35;1.20;;;1.10;;
57643;SDS011;43474;46.510;6.686;2022-11-15T03:51:07;2.25;;;1.40;;
57643;SDS011;43474;46.510;6.686;2022-11-15T03:53:33;1.60;;;1.30;;
57643;SDS011;43474;46.510;6.686;2022-11-15T03:55:58;2.08;;;1.40;;
57643;SDS011;43474;46.510;6.686;2022-11-15T03:58:24;1.73;;;1.20;;
57643;SDS011;43474;46.510;6.686;2022-11-15T04:00:50;2.85;;;1.30;;
57643;SDS011;43474;46.510;6.686;2022-11-15T04:03:15;2.10;;;1.40;;
57643;SDS011;43474;46.510;6.686;2022-11-15T04:05:41;1.58;;;1.30;;
57643;SDS011;43474;46.510;6.686;2022-11-15T04:08:06;1.83;;;1.25;;
57643;SDS011;43474;46.510;6.686;2022-11-15T04:10:32;1.98;;;1.40;;
57643;SDS011;43474;46.510;6.686;2022-11-15T04:12:57;2.13;;;1.30;;
57643;SDS011;43474;46.510;6.686;2022-11-15T04:15:23;1.77;;;1.40;;
57643;SDS011;43474;46.510;6.686;2022-11-15T04:17:50;2.20;;;1.38;;
57643;SDS011;43474;46.510;6.686;2022-11-15T04:20:19;2.55;;;1.30;;
57643;SDS011;43474;46.510;6.686;2022-11-15T04:23:09;1.95;;;1.30;;
57643;SDS011;43474;46.510;6.686;2022-11-15T04:25:56;3.15;;;1.48;;
57643;SDS011;43474;46.510;6.686;2022-11-15T04:28:23;3.00;;;1.40;;
57643;SDS011;43474;46.510;6.686;2022-11-15T04:30:49;3.50;;;1.65;;
57643;SDS011;43474;46.510;6.686;2022-11-15T04:33:15;1.80;;;1.38;;
57643;SDS011;43474;46.510;6.686;2022-11-15T04:35:41;2.60;;;1.70;;
57643;SDS011;43474;46.510;6.686;2022-11-15T04:38:08;2.58;;;1.60;;
57643;SDS011;43474;46.510;6.686;2022-11-15T04:40:35;1.77;;;1.40;;
57643;SDS011;43474;46.510;6.686;2022-11-15T04:43:01;2.53;;;1.50;;
57643;SDS011;43474;46.510;6.686;2022-11-15T04:45:27;2.80;;;1.67;;
57643;SDS011;43474;46.510;6.686;2022-11-15T04:47:52;2.28;;;1.67;;
57643;SDS011;43474;46.510;6.686;2022-11-15T04:50:18;1.95;;;1.58;;
57643;SDS011;43474;46.510;6.686;2022-11-15T04:52:53;1.92;;;1.60;;
57643;SDS011;43474;46.510;6.686;2022-11-15T04:55:19;3.33;;;2.05;;
57643;SDS011;43474;46.510;6.686;2022-11-15T04:57:45;3.05;;;1.55;;
57643;SDS011;43474;46.510;6.686;2022-11-15T05:00:12;2.17;;;1.65;;
57643;SDS011;43474;46.510;6.686;2022-11-15T05:02:39;2.72;;;2.08;;
57643;SDS011;43474;46.510;6.686;2022-11-15T05:05:24;3.42;;;1.58;;
57643;SDS011;43474;46.510;6.686;2022-11-15T05:07:50;2.70;;;1.77;;
57643;SDS011;43474;46.510;6.686;2022-11-15T05:10:16;4.65;;;1.90;;
57643;SDS011;43474;46.510;6.686;2022-11-15T05:12:42;3.17;;;1.50;;
57643;SDS011;43474;46.510;6.686;2022-11-15T05:15:08;2.85;;;1.88;;
57643;SDS011;43474;46.510;6.686;2022-11-15T05:17:34;2.30;;;1.70;;
57643;SDS011;43474;46.510;6.686;2022-11-15T05:20:00;4.35;;;2.20;;
57643;SDS011;43474;46.510;6.686;2022-11-15T05:22:25;2.47;;;1.77;;
57643;SDS011;43474;46.510;6.686;2022-11-15T05:24:52;3.63;;;2.10;;
57643;SDS011;43474;46.510;6.686;2022-11-15T05:27:17;2.17;;;1.67;;
57643;SDS011;43474;46.510;6.686;2022-11-15T05:29:43;2.53;;;1.85;;
57643;SDS011;43474;46.510;6.686;2022-11-15T05:32:09;2.35;;;1.83;;
57643;SDS011;43474;46.510;6.686;2022-11-15T05:34:36;2.35;;;1.80;;
57643;SDS011;43474;46.510;6.686;2022-11-15T05:37:02;2.42;;;2.00;;
57643;SDS011;43474;46.510;6.686;2022-11-15T05:39:28;2.80;;;1.90;;
57643;SDS011;43474;46.510;6.686;2022-11-15T05:42:00;3.58;;;1.92;;
57643;SDS011;43474;46.510;6.686;2022-11-15T05:44:31;2.88;;;1.83;;
57643;SDS011;43474;46.510;6.686;2022-11-15T05:46:57;2.03;;;1.65;;
57643;SDS011;43474;46.510;6.686;2022-11-15T05:49:24;5.40;;;1.90;;
57643;SDS011;43474;46.510;6.686;2022-11-15T05:51:53;2.90;;;1.80;;
57643;SDS011;43474;46.510;6.686;2022-11-15T05:54:19;2.47;;;1.83;;
57643;SDS011;43474;46.510;6.686;2022-11-15T05:56:48;3.42;;;2.10;;
57643;SDS011;43474;46.510;6.686;2022-11-15T05:59:14;3.80;;;1.73;;
57643;SDS011;43474;46.510;6.686;2022-11-15T06:01:41;2.13;;;1.73;;
57643;SDS011;43474;46.510;6.686;2022-11-15T06:04:07;3.83;;;2.00;;
57643;SDS011;43474;46.510;6.686;2022-11-15T06:06:32;2.85;;;1.80;;
57643;SDS011;43474;46.510;6.686;2022-11-15T06:08:58;2.95;;;2.03;;
57643;SDS011;43474;46.510;6.686;2022-11-15T06:11:24;2.90;;;1.88;;
57643;SDS011;43474;46.510;6.686;2022-11-15T06:13:49;2.88;;;2.00;;
57643;SDS011;43474;46.510;6.686;2022-11-15T06:16:15;4.38;;;2.10;;
57643;SDS011;43474;46.510;6.686;2022-11-15T06:18:41;3.60;;;2.03;;
57643;SDS011;43474;46.510;6.686;2022-11-15T06:21:06;2.30;;;2.10;;
57643;SDS011;43474;46.510;6.686;2022-11-15T06:23:33;4.65;;;2.40;;
57643;SDS011;43474;46.510;6.686;2022-11-15T06:26:07;5.18;;;2.70;;
57643;SDS011;43474;46.510;6.686;2022-11-15T06:28:33;3.03;;;2.45;;
57643;SDS011;43474;46.510;6.686;2022-11-15T06:31:02;3.85;;;2.60;;
57643;SDS011;43474;46.510;6.686;2022-11-15T06:33:32;4.68;;;2.35;;
57643;SDS011;43474;46.510;6.686;2022-11-15T06:36:05;4.22;;;2.97;;
57643;SDS011;43474;46.510;6.686;2022-11-15T06:38:33;5.72;;;3.05;;
57643;SDS011;43474;46.510;6.686;2022-11-15T06:41:05;5.07;;;3.30;;
57643;SDS011;43474;46.510;6.686;2022-11-15T06:43:34;3.65;;;2.75;;
57643;SDS011;43474;46.510;6.686;2022-11-15T06:46:00;5.82;;;3.33;;
57643;SDS011;43474;46.510;6.686;2022-11-15T06:48:27;4.22;;;2.97;;
57643;SDS011;43474;46.510;6.686;2022-11-15T06:50:55;8.18;;;3.28;;
57643;SDS011;43474;46.510;6.686;2022-11-15T06:53:22;4.28;;;3.08;;
57643;SDS011;43474;46.510;6.686;2022-11-15T06:55:48;6.82;;;3.63;;
57643;SDS011;43474;46.510;6.686;2022-11-15T06:58:15;5.63;;;3.38;;
57643;SDS011;43474;46.510;6.686;2022-11-15T07:00:40;5.78;;;3.40;;
57643;SDS011;43474;46.510;6.686;2022-11-15T07:03:07;7.68;;;3.92;;
57643;SDS011;43474;46.510;6.686;2022-11-15T07:05:33;6.32;;;3.60;;
57643;SDS011;43474;46.510;6.686;2022-11-15T07:07:59;6.80;;;4.13;;
57643;SDS011;43474;46.510;6.686;2022-11-15T07:10:25;7.40;;;4.68;;
57643;SDS011;43474;46.510;6.686;2022-11-15T07:12:52;8.43;;;4.38;;
57643;SDS011;43474;46.510;6.686;2022-11-15T07:15:19;7.57;;;4.43;;
57643;SDS011;43474;46.510;6.686;2022-11-15T07:17:46;7.80;;;4.40;;
57643;SDS011;43474;46.510;6.686;2022-11-15T07:20:12;5.97;;;4.10;;
57643;SDS011;43474;46.510;6.686;2022-11-15T07:22:39;6.45;;;4.18;;
57643;SDS011;43474;46.510;6.686;2022-11-15T07:25:06;8.05;;;4.30;;
57643;SDS011;43474;46.510;6.686;2022-11-15T07:27:32;5.72;;;3.40;;
57643;SDS011;43474;46.510;6.686;2022-11-15T07:29:57;6.07;;;3.78;;
57643;SDS011;43474;46.510;6.686;2022-11-15T07:32:23;6.65;;;3.90;;
57643;SDS011;43474;46.510;6.686;2022-11-15T07:34:49;5.60;;;2.80;;
57643;SDS011;43474;46.510;6.686;2022-11-15T07:37:14;5.22;;;2.80;;
57643;SDS011;43474;46.510;6.686;2022-11-15T07:39:41;2.80;;;2.00;;
57643;SDS011;43474;46.510;6.686;2022-11-15T07:42:07;2.80;;;1.80;;
57643;SDS011;43474;46.510;6.686;2022-11-15T07:44:52;2.58;;;1.60;;
57643;SDS011;43474;46.510;6.686;2022-11-15T07:47:17;3.88;;;1.88;;
57643;SDS011;43474;46.510;6.686;2022-11-15T07:49:43;3.00;;;1.98;;
57643;SDS011;43474;46.510;6.686;2022-11-15T07:52:09;1.60;;;1.38;;
57643;SDS011;43474;46.510;6.686;2022-11-15T07:54:34;2.50;;;1.70;;
57643;SDS011;43474;46.510;6.686;2022-11-15T07:57:00;1.90;;;1.40;;
57643;SDS011;43474;46.510;6.686;2022-11-15T07:59:25;2.15;;;1.77;;
57643;SDS011;43474;46.510;6.686;2022-11-15T08:01:51;3.08;;;1.70;;
57643;SDS011;43474;46.510;6.686;2022-11-15T08:04:17;1.80;;;1.50;;
57643;SDS011;43474;46.510;6.686;2022-11-15T08:06:43;2.58;;;1.70;;
57643;SDS011;43474;46.510;6.686;2022-11-15T08:09:08;2.53;;;1.35;;
57643;SDS011;43474;46.510;6.686;2022-11-15T08:11:34;1.58;;;1.08;;
57643;SDS011;43474;46.510;6.686;2022-11-15T08:13:59;2.47;;;1.30;;
57643;SDS011;43474;46.510;6.686;2022-11-15T08:16:25;1.60;;;1.20;;
57643;SDS011;43474;46.510;6.686;2022-11-15T08:18:51;1.42;;;1.10;;
57643;SDS011;43474;46.510;6.686;2022-11-15T08:21:18;2.70;;;1.40;;
57643;SDS011;43474;46.510;6.686;2022-11-15T08:23:44;5.75;;;1.45;;
57643;SDS011;43474;46.510;6.686;2022-11-15T08:26:11;1.60;;;1.33;;
57643;SDS011;43474;46.510;6.686;2022-11-15T08:28:36;1.92;;;1.52;;
57643;SDS011;43474;46.510;6.686;2022-11-15T08:31:03;1.63;;;1.40;;
57643;SDS011;43474;46.510;6.686;2022-11-15T08:33:29;4.40;;;1.52;;
57643;SDS011;43474;46.510;6.686;2022-11-15T08:35:56;2.05;;;1.13;;
57643;SDS011;43474;46.510;6.686;2022-11-15T08:38:23;4.43;;;1.30;;
57643;SDS011;43474;46.510;6.686;2022-11-15T08:40:50;1.50;;;1.10;;
57643;SDS011;43474;46.510;6.686;2022-11-15T08:43:17;1.85;;;1.50;;
57643;SDS011;43474;46.510;6.686;2022-11-15T08:45:42;2.35;;;1.60;;
57643;SDS011;43474;46.510;6.686;2022-11-15T08:48:08;3.25;;;1.13;;
57643;SDS011;43474;46.510;6.686;2022-11-15T08:50:34;1.95;;;1.05;;
57643;SDS011;43474;46.510;6.686;2022-11-15T08:53:08;2.20;;;1.50;;
57643;SDS011;43474;46.510;6.686;2022-11-15T08:55:36;1.65;;;1.20;;
57643;SDS011;43474;46.510;6.686;2022-11-15T08:58:02;3.28;;;1.38;;
57643;SDS011;43474;46.510;6.686;2022-11-15T09:00:29;1.35;;;1.10;;
57643;SDS011;43474;46.510;6.686;2022-11-15T09:02:54;2.95;;;1.27;;
57643;SDS011;43474;46.510;6.686;2022-11-15T09:05:20;2.00;;;1.10;;
57643;SDS011;43474;46.510;6.686;2022-11-15T09:07:46;3.20;;;1.45;;
57643;SDS011;43474;46.510;6.686;2022-11-15T09:10:12;2.22;;;1.35;;
57643;SDS011;43474;46.510;6.686;2022-11-15T09:12:37;2.13;;;1.25;;
57643;SDS011;43474;46.510;6.686;2022-11-15T09:15:04;2.28;;;1.30;;
57643;SDS011;43474;46.510;6.686;2022-11-15T09:17:33;1.45;;;1.08;;
57643;SDS011;43474;46.510;6.686;2022-11-15T09:19:59;2.03;;;1.60;;
57643;SDS011;43474;46.510;6.686;2022-11-15T09:22:24;3.58;;;1.40;;
57643;SDS011;43474;46.510;6.686;2022-11-15T09:24:50;2.92;;;1.27;;
57643;SDS011;43474;46.510;6.686;2022-11-15T09:27:15;1.20;;;1.10;;
57643;SDS011;43474;46.510;6.686;2022-11-15T09:29:41;2.72;;;1.17;;
57643;SDS011;43474;46.510;6.686;2022-11-15T09:32:06;4.32;;;1.30;;
57643;SDS011;43474;46.510;6.686;2022-11-15T09:34:32;1.70;;;1.10;;
57643;SDS011;43474;46.510;6.686;2022-11-15T09:36:58;1.27;;;1.17;;
57643;SDS011;43474;46.510;6.686;2022-11-15T09:39:23;5.13;;;1.25;;
57643;SDS011;43474;46.510;6.686;2022-11-15T09:49:45;2.22;;;1.30;;
57643;SDS011;43474;46.510;6.686;2022-11-15T09:52:12;2.35;;;1.38;;
57643;SDS011;43474;46.510;6.686;2022-11-15T09:54:39;2.13;;;1.35;;
57643;SDS011;43474;46.510;6.686;2022-11-15T09:57:15;1.88;;;1.10;;
57643;SDS011;43474;46.510;6.686;2022-11-15T10:05:03;2.85;;;1.30;;
57643;SDS011;43474;46.510;6.686;2022-11-15T10:07:37;1.30;;;1.00;;
57643;SDS011;43474;46.510;6.686;2022-11-15T10:10:13;1.63;;;1.25;;
57643;SDS011;43474;46.510;6.686;2022-11-15T10:12:48;2.40;;;1.30;;
57643;SDS011;43474;46.510;6.686;2022-11-15T10:15:17;1.50;;;1.20;;
57643;SDS011;43474;46.510;6.686;2022-11-15T10:17:56;2.47;;;1.38;;
57643;SDS011;43474;46.510;6.686;2022-11-15T10:20:40;1.92;;;1.33;;
57643;SDS011;43474;46.510;6.686;2022-11-15T10:23:13;2.95;;;1.38;;
57643;SDS011;43474;46.510;6.686;2022-11-15T10:25:40;3.25;;;1.33;;
57643;SDS011;43474;46.510;6.686;2022-11-15T10:28:09;1.85;;;1.45;;
57643;SDS011;43474;46.510;6.686;2022-11-15T10:30:51;3.80;;;1.80;;
57643;SDS011;43474;46.510;6.686;2022-11-15T10:38:55;2.22;;;1.50;;
57643;SDS011;43474;46.510;6.686;2022-11-15T10:46:36;1.80;;;1.48;;
57643;SDS011;43474;46.510;6.686;2022-11-15T10:49:12;2.55;;;1.40;;
57643;SDS011;43474;46.510;6.686;2022-11-15T10:51:41;3.47;;;1.40;;
57643;SDS011;43474;46.510;6.686;2022-11-15T10:54:12;2.20;;;1.23;;
57643;SDS011;43474;46.510;6.686;2022-11-15T10:56:41;2.40;;;1.52;;
57643;SDS011;43474;46.510;6.686;2022-11-15T10:59:14;1.80;;;1.42;;
57643;SDS011;43474;46.510;6.686;2022-11-15T11:01:47;2.67;;;1.35;;
57643;SDS011;43474;46.510;6.686;2022-11-15T11:04:13;3.42;;;1.30;;
57643;SDS011;43474;46.510;6.686;2022-11-15T11:06:49;2.25;;;1.38;;
57643;SDS011;43474;46.510;6.686;2022-11-15T11:09:31;2.45;;;1.48;;
57643;SDS011;43474;46.510;6.686;2022-11-15T11:11:59;1.92;;;1.45;;
57643;SDS011;43474;46.510;6.686;2022-11-15T11:14:26;1.73;;;1.27;;
57643;SDS011;43474;46.510;6.686;2022-11-15T11:39:39;3.45;;;1.60;;
57643;SDS011;43474;46.510;6.686;2022-11-15T11:47:39;2.40;;;1.83;;
57643;SDS011;43474;46.510;6.686;2022-11-15T11:50:12;4.72;;;1.75;;
57643;SDS011;43474;46.510;6.686;2022-11-15T11:52:41;2.33;;;1.77;;
57643;SDS011;43474;46.510;6.686;2022-11-15T11:55:34;2.85;;;1.98;;
57643;SDS011;43474;46.510;6.686;2022-11-15T11:58:15;3.17;;;1.90;;
57643;SDS011;43474;46.510;6.686;2022-11-15T12:00:55;3.88;;;2.00;;
57643;SDS011;43474;46.510;6.686;2022-11-15T12:03:42;3.85;;;1.90;;
57643;SDS011;43474;46.510;6.686;2022-11-15T12:06:22;3.63;;;2.10;;
57643;SDS011;43474;46.510;6.686;2022-11-15T12:12:07;2.58;;;2.10;;
57643;SDS011;43474;46.510;6.686;2022-11-15T12:15:11;3.17;;;2.05;;
57643;SDS011;43474;46.510;6.686;2022-11-15T12:17:42;5.57;;;1.80;;
57643;SDS011;43474;46.510;6.686;2022-11-15T12:20:15;2.30;;;1.58;;
57643;SDS011;43474;46.510;6.686;2022-11-15T12:22:53;2.90;;;2.03;;
57643;SDS011;43474;46.510;6.686;2022-11-15T12:25:25;3.42;;;1.83;;
57643;SDS011;43474;46.510;6.686;2022-11-15T12:27:57;3.17;;;2.50;;
57643;SDS011;43474;46.510;6.686;2022-11-15T12:30:44;3.97;;;2.55;;
57643;SDS011;43474;46.510;6.686;2022-11-15T12:36:04;3.20;;;2.42;;
57643;SDS011;43474;46.510;6.686;2022-11-15T12:38:50;4.78;;;2.72;;
57643;SDS011;43474;46.510;6.686;2022-11-15T12:41:17;3.80;;;2.35;;
57643;SDS011;43474;46.510;6.686;2022-11-15T12:43:45;3.60;;;2.17;;
57643;SDS011;43474;46.510;6.686;2022-11-15T12:46:19;5.75;;;2.40;;
57643;SDS011;43474;46.510;6.686;2022-11-15T12:48:55;5.07;;;2.53;;
57643;SDS011;43474;46.510;6.686;2022-11-15T13:04:52;4.97;;;2.38;;
57643;SDS011;43474;46.510;6.686;2022-11-15T13:17:45;8.10;;;4.10;;
57643;SDS011;43474;46.510;6.686;2022-11-15T13:22:41;9.75;;;4.85;;
57643;SDS011;43474;46.510;6.686;2022-11-15T13:30:40;7.07;;;4.78;;
57643;SDS011;43474;46.510;6.686;2022-11-15T13:33:17;10.65;;;6.32;;
57643;SDS011;43474;46.510;6.686;2022-11-15T13:35:47;14.05;;;6.30;;
57643;SDS011;43474;46.510;6.686;2022-11-15T13:40:52;11.13;;;6.03;;
57643;SDS011;43474;46.510;6.686;2022-11-15T13:48:34;12.82;;;7.18;;
57643;SDS011;43474;46.510;6.686;2022-11-15T13:51:04;12.35;;;6.50;;
57643;SDS011;43474;46.510;6.686;2022-11-15T13:53:41;14.82;;;6.68;;
57643;SDS011;43474;46.510;6.686;2022-11-15T13:56:12;12.93;;;6.78;;
57643;SDS011;43474;46.510;6.686;2022-11-15T13:58:39;9.77;;;6.45;;
57643;SDS011;43474;46.510;6.686;2022-11-15T14:01:05;11.50;;;6.68;;
57643;SDS011;43474;46.510;6.686;2022-11-15T14:03:32;12.25;;;6.20;;
57643;SDS011;43474;46.510;6.686;2022-11-15T14:06:12;9.85;;;6.88;;
57643;SDS011;43474;46.510;6.686;2022-11-15T14:11:50;8.85;;;6.03;;
57643;SDS011;43474;46.510;6.686;2022-11-15T14:14:19;11.93;;;6.32;;
57643;SDS011;43474;46.510;6.686;2022-11-15T14:16:48;8.25;;;5.70;;
57643;SDS011;43474;46.510;6.686;2022-11-15T14:24:39;11.55;;;5.63;;
57643;SDS011;43474;46.510;6.686;2022-11-15T14:29:53;9.27;;;6.00;;
57643;SDS011;43474;46.510;6.686;2022-11-15T14:32:23;8.45;;;5.95;;
57643;SDS011;43474;46.510;6.686;2022-11-15T14:34:55;9.10;;;5.78;;
57643;SDS011;43474;46.510;6.686;2022-11-15T14:37:25;9.88;;;6.47;;
57643;SDS011;43474;46.510;6.686;2022-11-15T14:39:52;11.30;;;6.70;;
57643;SDS011;43474;46.510;6.686;2022-11-15T14:42:19;9.32;;;5.82;;
57643;SDS011;43474;46.510;6.686;2022-11-15T14:44:46;13.32;;;6.05;;
57643;SDS011;43474;46.510;6.686;2022-11-15T14:47:12;10.35;;;6.30;;
57643;SDS011;43474;46.510;6.686;2022-11-15T14:49:38;10.63;;;6.50;;
57643;SDS011;43474;46.510;6.686;2022-11-15T14:52:07;9.85;;;6.47;;
57643;SDS011;43474;46.510;6.686;2022-11-15T14:54:42;11.52;;;6.43;;
57643;SDS011;43474;46.510;6.686;2022-11-15T14:57:07;10.48;;;5.93;;
57643;SDS011;43474;46.510;6.686;2022-11-15T14:59:33;11.27;;;6.28;;
57643;SDS011;43474;46.510;6.686;2022-11-15T15:01:59;10.07;;;6.50;;
57643;SDS011;43474;46.510;6.686;2022-11-15T15:04:24;13.05;;;6.30;;
57643;SDS011;43474;46.510;6.686;2022-11-15T15:06:50;12.80;;;6.65;;
57643;SDS011;43474;46.510;6.686;2022-11-15T15:09:15;12.52;;;6.57;;
57643;SDS011;43474;46.510;6.686;2022-11-15T15:11:41;10.80;;;7.18;;
57643;SDS011;43474;46.510;6.686;2022-11-15T15:14:07;10.23;;;6.35;;
57643;SDS011;43474;46.510;6.686;2022-11-15T15:16:33;12.50;;;6.53;;
57643;SDS011;43474;46.510;6.686;2022-11-15T15:18:59;11.23;;;6.88;;
57643;SDS011;43474;46.510;6.686;2022-11-15T15:21:28;9.68;;;6.40;;
57643;SDS011;43474;46.510;6.686;2022-11-15T15:26:22;10.55;;;6.63;;
57643;SDS011;43474;46.510;6.686;2022-11-15T15:28:48;10.48;;;6.80;;
57643;SDS011;43474;46.510;6.686;2022-11-15T15:31:16;11.77;;;6.80;;
57643;SDS011;43474;46.510;6.686;2022-11-15T15:33:42;11.77;;;7.45;;
57643;SDS011;43474;46.510;6.686;2022-11-15T15:36:14;12.27;;;6.88;;
57643;SDS011;43474;46.510;6.686;2022-11-15T15:38:43;10.98;;;6.30;;
57643;SDS011;43474;46.510;6.686;2022-11-15T15:41:10;9.48;;;6.00;;
57643;SDS011;43474;46.510;6.686;2022-11-15T15:43:36;10.43;;;6.47;;
57643;SDS011;43474;46.510;6.686;2022-11-15T15:46:02;11.23;;;6.47;;
57643;SDS011;43474;46.510;6.686;2022-11-15T15:48:27;10.88;;;6.15;;
57643;SDS011;43474;46.510;6.686;2022-11-15T15:50:53;12.35;;;6.65;;
57643;SDS011;43474;46.510;6.686;2022-11-15T15:53:18;9.75;;;6.47;;
57643;SDS011;43474;46.510;6.686;2022-11-15T15:55:44;13.80;;;6.63;;
57643;SDS011;43474;46.510;6.686;2022-11-15T15:58:09;14.30;;;7.30;;
57643;SDS011;43474;46.510;6.686;2022-11-15T16:00:35;10.32;;;6.38;;
57643;SDS011;43474;46.510;6.686;2022-11-15T16:03:01;11.98;;;6.50;;
57643;SDS011;43474;46.510;6.686;2022-11-15T16:05:28;14.20;;;7.15;;
57643;SDS011;43474;46.510;6.686;2022-11-15T16:07:53;11.82;;;7.03;;
57643;SDS011;43474;46.510;6.686;2022-11-15T16:10:26;11.82;;;7.40;;
57643;SDS011;43474;46.510;6.686;2022-11-15T16:12:54;14.07;;;6.85;;
57643;SDS011;43474;46.510;6.686;2022-11-15T16:15:21;13.20;;;7.03;;
57643;SDS011;43474;46.510;6.686;2022-11-15T16:17:55;11.07;;;6.68;;
57643;SDS011;43474;46.510;6.686;2022-11-15T16:23:05;10.93;;;6.93;;
57643;SDS011;43474;46.510;6.686;2022-11-15T16:30:47;15.85;;;7.18;;
57643;SDS011;43474;46.510;6.686;2022-11-15T16:33:14;12.65;;;7.35;;
57643;SDS011;43474;46.510;6.686;2022-11-15T16:35:40;12.13;;;7.50;;
57643;SDS011;43474;46.510;6.686;2022-11-15T16:38:05;11.02;;;7.38;;
57643;SDS011;43474;46.510;6.686;2022-11-15T16:40:38;12.25;;;7.50;;
57643;SDS011;43474;46.510;6.686;2022-11-15T16:43:03;15.00;;;7.75;;
57643;SDS011;43474;46.510;6.686;2022-11-15T16:45:31;16.55;;;8.00;;
57643;SDS011;43474;46.510;6.686;2022-11-15T16:47:59;15.27;;;8.50;;
57643;SDS011;43474;46.510;6.686;2022-11-15T16:50:25;15.45;;;7.32;;
57643;SDS011;43474;46.510;6.686;2022-11-15T16:52:57;14.75;;;7.95;;
57643;SDS011;43474;46.510;6.686;2022-11-15T16:55:24;12.02;;;8.02;;
57643;SDS011;43474;46.510;6.686;2022-11-15T16:57:52;11.82;;;7.78;;
57643;SDS011;43474;46.510;6.686;2022-11-15T17:00:18;15.32;;;8.32;;
57643;SDS011;43474;46.510;6.686;2022-11-15T17:02:45;17.35;;;8.45;;
57643;SDS011;43474;46.510;6.686;2022-11-15T17:05:12;15.40;;;8.20;;
57643;SDS011;43474;46.510;6.686;2022-11-15T17:07:38;15.13;;;9.02;;
57643;SDS011;43474;46.510;6.686;2022-11-15T17:10:05;13.93;;;8.60;;
57643;SDS011;43474;46.510;6.686;2022-11-15T17:12:33;14.15;;;8.63;;
57643;SDS011;43474;46.510;6.686;2022-11-15T17:14:59;13.68;;;8.25;;
57643;SDS011;43474;46.510;6.686;2022-11-15T17:17:25;12.75;;;7.88;;